sensor_id;sensor_type;location;lat;lon;timestamp;temperature;humidity
23801;DHT22;12081;48.614;10.226;2023-03-01T00:01:27;-1.80;99.90
23801;DHT22;12081;48.614;10.226;2023-03-01T00:04:12;-1.80;99.90
23801;DHT22;12081;48.614;10.226;2023-03-01T00:06:56;-1.80;99.90
23801;DHT22;12081;48.614;10.226;2023-03-01T00:09:40;-1.70;99.90
23801;DHT22;12081;48.614;10.226;2023-03-01T00:12:24;-1.70;99.90
23801;DHT22;12081;48.614;10.226;2023-03-01T00:15:08;-1.60;99.90
23801;DHT22;12081;48.614;10.226;2023-03-01T00:17:52;-1.60;99.90
23801;DHT22;12081;48.614;10.226;2023-03-01T00:20:36;-1.60;99.90
23801;DHT22;12081;48.614;10.226;2023-03-01T00:23:21;-1.50;99.90
23801;DHT22;12081;48.614;10.226;2023-03-01T00:26:10;-1.50;99.90
23801;DHT22;12081;48.614;10.226;2023-03-01T00:28:57;-1.50;99.90
23801;DHT22;12081;48.614;10.226;2023-03-01T00:31:42;-1.50;99.90
23801;DHT22;12081;48.614;10.226;2023-03-01T00:34:26;-1.40;99.90
23801;DHT22;12081;48.614;10.226;2023-03-01T00:37:10;-1.40;99.90
23801;DHT22;12081;48.614;10.226;2023-03-01T00:39:54;-1.40;99.90
23801;DHT22;12081;48.614;10.226;2023-03-01T00:42:39;-1.30;99.90
23801;DHT22;12081;48.614;10.226;2023-03-01T00:45:23;-1.30;99.90
23801;DHT22;12081;48.614;10.226;2023-03-01T00:48:08;-1.30;99.90
23801;DHT22;12081;48.614;10.226;2023-03-01T00:50:52;-1.20;99.90
23801;DHT22;12081;48.614;10.226;2023-03-01T00:53:36;-1.20;99.90
23801;DHT22;12081;48.614;10.226;2023-03-01T00:56:21;-1.20;99.90
23801;DHT22;12081;48.614;10.226;2023-03-01T00:59:05;-1.20;99.90
23801;DHT22;12081;48.614;10.226;2023-03-01T01:01:49;-1.20;99.90
23801;DHT22;12081;48.614;10.226;2023-03-01T01:04:33;-1.20;99.90
23801;DHT22;12081;48.614;10.226;2023-03-01T01:07:17;-1.10;99.90
23801;DHT22;12081;48.614;10.226;2023-03-01T01:10:05;-1.10;99.90
23801;DHT22;12081;48.614;10.226;2023-03-01T01:12:49;-1.10;99.90
23801;DHT22;12081;48.614;10.226;2023-03-01T01:15:34;-1.10;99.90
23801;DHT22;12081;48.614;10.226;2023-03-01T01:18:18;-1.00;99.90
23801;DHT22;12081;48.614;10.226;2023-03-01T01:21:08;-1.00;99.90
23801;DHT22;12081;48.614;10.226;2023-03-01T01:23:53;-1.00;99.90
23801;DHT22;12081;48.614;10.226;2023-03-01T01:26:37;-1.00;99.90
23801;DHT22;12081;48.614;10.226;2023-03-01T01:29:22;-0.90;99.90
23801;DHT22;12081;48.614;10.226;2023-03-01T01:32:05;-0.90;99.90
23801;DHT22;12081;48.614;10.226;2023-03-01T01:34:50;-0.90;99.90
23801;DHT22;12081;48.614;10.226;2023-03-01T01:37:34;-0.90;99.90
23801;DHT22;12081;48.614;10.226;2023-03-01T01:40:18;-0.90;99.90
23801;DHT22;12081;48.614;10.226;2023-03-01T01:43:02;-0.10;99.90
23801;DHT22;12081;48.614;10.226;2023-03-01T01:45:46;-0.90;99.90
23801;DHT22;12081;48.614;10.226;2023-03-01T01:48:41;-0.90;99.90
23801;DHT22;12081;48.614;10.226;2023-03-01T01:51:35;-0.80;99.90
23801;DHT22;12081;48.614;10.226;2023-03-01T01:54:27;-0.90;99.90
23801;DHT22;12081;48.614;10.226;2023-03-01T01:57:20;-0.80;99.90
23801;DHT22;12081;48.614;10.226;2023-03-01T02:00:13;-0.80;99.90
23801;DHT22;12081;48.614;10.226;2023-03-01T02:03:02;-0.70;99.90
23801;DHT22;12081;48.614;10.226;2023-03-01T02:08:44;-0.70;99.90
23801;DHT22;12081;48.614;10.226;2023-03-01T02:11:30;-0.70;99.90
23801;DHT22;12081;48.614;10.226;2023-03-01T02:14:16;-0.70;99.90
23801;DHT22;12081;48.614;10.226;2023-03-01T02:17:01;-0.70;99.90
23801;DHT22;12081;48.614;10.226;2023-03-01T02:22:53;-0.70;99.90
23801;DHT22;12081;48.614;10.226;2023-03-01T02:28:38;-0.70;99.90
23801;DHT22;12081;48.614;10.226;2023-03-01T02:31:22;-0.70;99.90
23801;DHT22;12081;48.614;10.226;2023-03-01T02:34:25;-0.70;99.90
23801;DHT22;12081;48.614;10.226;2023-03-01T02:37:13;-0.70;99.90
23801;DHT22;12081;48.614;10.226;2023-03-01T02:40:04;-0.70;99.90
23801;DHT22;12081;48.614;10.226;2023-03-01T02:42:56;-0.70;99.90
23801;DHT22;12081;48.614;10.226;2023-03-01T04:06:13;-0.80;99.90
23801;DHT22;12081;48.614;10.226;2023-03-01T04:08:57;-0.80;99.90
23801;DHT22;12081;48.614;10.226;2023-03-01T04:11:42;-0.80;99.90
23801;DHT22;12081;48.614;10.226;2023-03-01T04:14:26;-0.80;99.90
23801;DHT22;12081;48.614;10.226;2023-03-01T04:17:10;-0.80;99.90
23801;DHT22;12081;48.614;10.226;2023-03-01T04:19:54;1.80;99.90
23801;DHT22;12081;48.614;10.226;2023-03-01T04:22:39;-0.90;99.90
23801;DHT22;12081;48.614;10.226;2023-03-01T06:33:24;-2.20;99.90
23801;DHT22;12081;48.614;10.226;2023-03-01T06:36:08;-1.50;99.90
23801;DHT22;12081;48.614;10.226;2023-03-01T06:38:53;-2.10;99.90
23801;DHT22;12081;48.614;10.226;2023-03-01T06:41:38;-2.10;99.90
23801;DHT22;12081;48.614;10.226;2023-03-01T06:44:22;-1.80;99.90
23801;DHT22;12081;48.614;10.226;2023-03-01T06:47:06;-1.30;99.90
23801;DHT22;12081;48.614;10.226;2023-03-01T06:49:50;-0.70;99.90
23801;DHT22;12081;48.614;10.226;2023-03-01T06:52:34;-0.20;99.90
23801;DHT22;12081;48.614;10.226;2023-03-01T06:55:18;0.20;99.90
23801;DHT22;12081;48.614;10.226;2023-03-01T06:58:02;0.80;99.90
23801;DHT22;12081;48.614;10.226;2023-03-01T07:00:46;1.60;99.90
23801;DHT22;12081;48.614;10.226;2023-03-01T07:03:30;2.10;99.90
23801;DHT22;12081;48.614;10.226;2023-03-01T07:06:14;2.10;99.90
23801;DHT22;12081;48.614;10.226;2023-03-01T07:08:58;2.30;99.90
23801;DHT22;12081;48.614;10.226;2023-03-01T07:11:43;2.80;99.90
23801;DHT22;12081;48.614;10.226;2023-03-01T07:14:27;3.30;99.90
23801;DHT22;12081;48.614;10.226;2023-03-01T07:17:11;3.50;99.90
23801;DHT22;12081;48.614;10.226;2023-03-01T07:19:56;3.90;99.60
23801;DHT22;12081;48.614;10.226;2023-03-01T07:22:41;4.10;97.40
23801;DHT22;12081;48.614;10.226;2023-03-01T07:25:25;4.20;95.80
23801;DHT22;12081;48.614;10.226;2023-03-01T07:28:09;4.60;94.50
23801;DHT22;12081;48.614;10.226;2023-03-01T07:30:54;4.90;94.00
23801;DHT22;12081;48.614;10.226;2023-03-01T07:33:38;5.40;91.80
23801;DHT22;12081;48.614;10.226;2023-03-01T07:36:22;5.80;89.50
23801;DHT22;12081;48.614;10.226;2023-03-01T07:39:07;6.10;85.90
23801;DHT22;12081;48.614;10.226;2023-03-01T07:41:51;6.00;83.70
23801;DHT22;12081;48.614;10.226;2023-03-01T07:44:37;5.90;84.90
23801;DHT22;12081;48.614;10.226;2023-03-01T07:47:21;6.20;81.60
23801;DHT22;12081;48.614;10.226;2023-03-01T07:50:05;6.00;80.90
23801;DHT22;12081;48.614;10.226;2023-03-01T07:52:50;6.30;80.50
23801;DHT22;12081;48.614;10.226;2023-03-01T07:55:34;6.60;78.80
23801;DHT22;12081;48.614;10.226;2023-03-01T07:58:18;7.10;76.10
23801;DHT22;12081;48.614;10.226;2023-03-01T08:01:03;7.40;74.20
23801;DHT22;12081;48.614;10.226;2023-03-01T08:03:48;7.50;72.80
23801;DHT22;12081;48.614;10.226;2023-03-01T08:06:34;7.40;71.50
23801;DHT22;12081;48.614;10.226;2023-03-01T08:09:18;7.30;72.50
23801;DHT22;12081;48.614;10.226;2023-03-01T08:12:03;7.50;71.50
23801;DHT22;12081;48.614;10.226;2023-03-01T08:14:48;8.10;69.80
23801;DHT22;12081;48.614;10.226;2023-03-01T08:17:33;7.80;68.90
23801;DHT22;12081;48.614;10.226;2023-03-01T08:20:16;8.10;68.40
23801;DHT22;12081;48.614;10.226;2023-03-01T08:23:00;8.30;65.80
23801;DHT22;12081;48.614;10.226;2023-03-01T08:25:45;8.60;65.40
23801;DHT22;12081;48.614;10.226;2023-03-01T08:28:29;8.60;65.30
23801;DHT22;12081;48.614;10.226;2023-03-01T08:31:25;8.80;63.70
23801;DHT22;12081;48.614;10.226;2023-03-01T08:34:13;8.60;63.50
23801;DHT22;12081;48.614;10.226;2023-03-01T08:36:57;8.90;62.90
23801;DHT22;12081;48.614;10.226;2023-03-01T08:39:42;9.10;61.90
23801;DHT22;12081;48.614;10.226;2023-03-01T08:42:32;9.20;61.00
23801;DHT22;12081;48.614;10.226;2023-03-01T08:45:17;9.40;59.90
23801;DHT22;12081;48.614;10.226;2023-03-01T08:48:02;9.50;59.30
23801;DHT22;12081;48.614;10.226;2023-03-01T08:50:46;9.80;59.40
23801;DHT22;12081;48.614;10.226;2023-03-01T08:53:30;9.60;58.30
23801;DHT22;12081;48.614;10.226;2023-03-01T08:56:15;9.50;59.20
23801;DHT22;12081;48.614;10.226;2023-03-01T08:58:59;9.00;59.00
23801;DHT22;12081;48.614;10.226;2023-03-01T09:01:43;9.00;58.90
23801;DHT22;12081;48.614;10.226;2023-03-01T09:04:27;8.80;59.40
23801;DHT22;12081;48.614;10.226;2023-03-01T09:07:11;7.70;60.30
23801;DHT22;12081;48.614;10.226;2023-03-01T09:09:56;6.90;63.10
23801;DHT22;12081;48.614;10.226;2023-03-01T09:12:40;6.60;65.30
23801;DHT22;12081;48.614;10.226;2023-03-01T09:15:24;6.80;65.20
23801;DHT22;12081;48.614;10.226;2023-03-01T09:18:08;7.30;64.20
23801;DHT22;12081;48.614;10.226;2023-03-01T09:20:52;7.70;63.50
23801;DHT22;12081;48.614;10.226;2023-03-01T09:23:40;8.00;61.40
23801;DHT22;12081;48.614;10.226;2023-03-01T09:26:25;8.30;60.70
23801;DHT22;12081;48.614;10.226;2023-03-01T09:29:09;8.90;60.00
23801;DHT22;12081;48.614;10.226;2023-03-01T09:31:53;8.90;58.70
23801;DHT22;12081;48.614;10.226;2023-03-01T09:34:38;8.80;59.10
23801;DHT22;12081;48.614;10.226;2023-03-01T09:37:43;9.10;59.20
23801;DHT22;12081;48.614;10.226;2023-03-01T09:40:28;9.00;58.00
23801;DHT22;12081;48.614;10.226;2023-03-01T09:43:26;12.00;59.60
23801;DHT22;12081;48.614;10.226;2023-03-01T09:46:15;10.00;57.90
23801;DHT22;12081;48.614;10.226;2023-03-01T09:49:21;10.40;56.10
23801;DHT22;12081;48.614;10.226;2023-03-01T09:52:23;10.50;55.20
23801;DHT22;12081;48.614;10.226;2023-03-01T09:55:15;10.40;55.70
23801;DHT22;12081;48.614;10.226;2023-03-01T10:04:51;10.20;55.60
23801;DHT22;12081;48.614;10.226;2023-03-01T10:08:02;10.10;55.60
23801;DHT22;12081;48.614;10.226;2023-03-01T10:10:51;10.60;55.10
23801;DHT22;12081;48.614;10.226;2023-03-01T10:13:50;12.80;54.60
23801;DHT22;12081;48.614;10.226;2023-03-01T10:16:40;11.40;52.70
23801;DHT22;12081;48.614;10.226;2023-03-01T10:19:34;12.00;52.20
23801;DHT22;12081;48.614;10.226;2023-03-01T10:22:28;12.10;51.90
23801;DHT22;12081;48.614;10.226;2023-03-01T10:25:14;13.30;51.20
23801;DHT22;12081;48.614;10.226;2023-03-01T10:28:05;13.40;49.00
23801;DHT22;12081;48.614;10.226;2023-03-01T10:30:53;12.60;49.60
23801;DHT22;12081;48.614;10.226;2023-03-01T10:33:38;12.40;50.20
23801;DHT22;12081;48.614;10.226;2023-03-01T10:36:23;11.50;51.70
23801;DHT22;12081;48.614;10.226;2023-03-01T10:39:14;11.90;52.00
23801;DHT22;12081;48.614;10.226;2023-03-01T10:42:02;11.90;51.00
23801;DHT22;12081;48.614;10.226;2023-03-01T10:44:48;12.40;50.90
23801;DHT22;12081;48.614;10.226;2023-03-01T10:47:32;13.00;49.90
23801;DHT22;12081;48.614;10.226;2023-03-01T10:50:21;13.00;49.80
23801;DHT22;12081;48.614;10.226;2023-03-01T10:53:38;13.30;49.40
23801;DHT22;12081;48.614;10.226;2023-03-01T10:56:23;13.30;49.90
23801;DHT22;12081;48.614;10.226;2023-03-01T10:59:29;13.50;48.50
23801;DHT22;12081;48.614;10.226;2023-03-01T11:02:17;13.00;49.10
23801;DHT22;12081;48.614;10.226;2023-03-01T11:05:22;12.60;49.90
23801;DHT22;12081;48.614;10.226;2023-03-01T11:08:09;13.00;49.50
23801;DHT22;12081;48.614;10.226;2023-03-01T11:11:05;12.90;49.30
23801;DHT22;12081;48.614;10.226;2023-03-01T11:13:58;13.30;48.80
23801;DHT22;12081;48.614;10.226;2023-03-01T11:16:48;13.70;48.60
23801;DHT22;12081;48.614;10.226;2023-03-01T11:19:32;14.20;47.30
23801;DHT22;12081;48.614;10.226;2023-03-01T11:22:19;14.00;47.10
23801;DHT22;12081;48.614;10.226;2023-03-01T11:25:05;13.90;47.70
23801;DHT22;12081;48.614;10.226;2023-03-01T11:27:55;14.20;47.10
23801;DHT22;12081;48.614;10.226;2023-03-01T11:33:53;15.20;45.70
23801;DHT22;12081;48.614;10.226;2023-03-01T11:37:22;15.30;45.30
23801;DHT22;12081;48.614;10.226;2023-03-01T11:40:16;15.50;45.30
23801;DHT22;12081;48.614;10.226;2023-03-01T11:49:17;16.60;44.10
23801;DHT22;12081;48.614;10.226;2023-03-01T11:52:19;16.80;43.40
23801;DHT22;12081;48.614;10.226;2023-03-01T11:58:11;15.70;44.30
23801;DHT22;12081;48.614;10.226;2023-03-01T12:01:15;15.10;45.00
23801;DHT22;12081;48.614;10.226;2023-03-01T12:07:10;14.30;46.60
23801;DHT22;12081;48.614;10.226;2023-03-01T12:10:23;13.70;47.10
23801;DHT22;12081;48.614;10.226;2023-03-01T12:23:00;15.20;45.00
23801;DHT22;12081;48.614;10.226;2023-03-01T12:29:25;16.80;43.90
23801;DHT22;12081;48.614;10.226;2023-03-01T12:35:29;17.40;42.30
23801;DHT22;12081;48.614;10.226;2023-03-01T12:38:40;16.60;42.80
23801;DHT22;12081;48.614;10.226;2023-03-01T12:51:02;15.20;45.10
23801;DHT22;12081;48.614;10.226;2023-03-01T12:53:50;15.30;45.20
23801;DHT22;12081;48.614;10.226;2023-03-01T12:56:36;15.70;45.50
23801;DHT22;12081;48.614;10.226;2023-03-01T12:59:34;15.80;44.90
23801;DHT22;12081;48.614;10.226;2023-03-01T13:02:27;16.20;45.00
23801;DHT22;12081;48.614;10.226;2023-03-01T13:08:51;14.50;46.90
23801;DHT22;12081;48.614;10.226;2023-03-01T13:11:42;13.90;47.40
23801;DHT22;12081;48.614;10.226;2023-03-01T13:14:35;13.20;48.70
23801;DHT22;12081;48.614;10.226;2023-03-01T13:17:31;12.50;50.10
23801;DHT22;12081;48.614;10.226;2023-03-01T13:20:18;12.00;51.00
23801;DHT22;12081;48.614;10.226;2023-03-01T13:23:24;12.20;51.40
23801;DHT22;12081;48.614;10.226;2023-03-01T13:26:13;12.00;50.80
23801;DHT22;12081;48.614;10.226;2023-03-01T13:28:58;11.90;52.20
23801;DHT22;12081;48.614;10.226;2023-03-01T13:34:46;12.90;51.00
23801;DHT22;12081;48.614;10.226;2023-03-01T13:37:36;13.20;49.80
23801;DHT22;12081;48.614;10.226;2023-03-01T13:43:29;13.20;49.90
23801;DHT22;12081;48.614;10.226;2023-03-01T13:48:58;12.90;50.20
23801;DHT22;12081;48.614;10.226;2023-03-01T13:51:46;12.90;50.60
23801;DHT22;12081;48.614;10.226;2023-03-01T13:54:32;12.50;50.30
23801;DHT22;12081;48.614;10.226;2023-03-01T13:57:22;11.90;51.80
23801;DHT22;12081;48.614;10.226;2023-03-01T14:00:36;12.10;51.80
23801;DHT22;12081;48.614;10.226;2023-03-01T14:03:20;11.50;52.10
23801;DHT22;12081;48.614;10.226;2023-03-01T14:06:12;11.40;53.00
23801;DHT22;12081;48.614;10.226;2023-03-01T14:09:16;11.20;53.40
23801;DHT22;12081;48.614;10.226;2023-03-01T14:12:26;11.00;53.80
23801;DHT22;12081;48.614;10.226;2023-03-01T14:15:34;10.80;54.40
23801;DHT22;12081;48.614;10.226;2023-03-01T14:21:29;10.60;54.80
23801;DHT22;12081;48.614;10.226;2023-03-01T14:24:22;10.10;55.30
23801;DHT22;12081;48.614;10.226;2023-03-01T14:27:13;10.00;56.40
23801;DHT22;12081;48.614;10.226;2023-03-01T14:30:04;10.10;56.50
23801;DHT22;12081;48.614;10.226;2023-03-01T14:32:59;10.00;56.40
23801;DHT22;12081;48.614;10.226;2023-03-01T14:35:52;9.90;56.00
23801;DHT22;12081;48.614;10.226;2023-03-01T14:38:42;9.50;56.80
23801;DHT22;12081;48.614;10.226;2023-03-01T14:41:28;9.40;57.60
23801;DHT22;12081;48.614;10.226;2023-03-01T14:44:16;9.20;58.00
23801;DHT22;12081;48.614;10.226;2023-03-01T14:47:02;9.10;58.50
23801;DHT22;12081;48.614;10.226;2023-03-01T14:49:48;9.10;58.20
23801;DHT22;12081;48.614;10.226;2023-03-01T14:52:40;9.30;58.40
23801;DHT22;12081;48.614;10.226;2023-03-01T14:55:35;9.20;58.20
23801;DHT22;12081;48.614;10.226;2023-03-01T14:58:23;9.10;59.20
23801;DHT22;12081;48.614;10.226;2023-03-01T15:01:14;9.10;58.70
23801;DHT22;12081;48.614;10.226;2023-03-01T15:04:00;9.00;58.90
23801;DHT22;12081;48.614;10.226;2023-03-01T15:06:45;8.90;59.20
23801;DHT22;12081;48.614;10.226;2023-03-01T15:09:30;9.00;59.40
23801;DHT22;12081;48.614;10.226;2023-03-01T15:18:21;9.00;59.40
23801;DHT22;12081;48.614;10.226;2023-03-01T15:24:06;8.80;60.80
23801;DHT22;12081;48.614;10.226;2023-03-01T15:26:57;8.80;60.90
23801;DHT22;12081;48.614;10.226;2023-03-01T15:30:13;8.50;61.00
23801;DHT22;12081;48.614;10.226;2023-03-01T15:36:41;8.40;62.70
23801;DHT22;12081;48.614;10.226;2023-03-01T15:39:37;8.20;63.80
23801;DHT22;12081;48.614;10.226;2023-03-01T15:45:22;8.40;64.00
23801;DHT22;12081;48.614;10.226;2023-03-01T15:48:18;8.30;63.90
23801;DHT22;12081;48.614;10.226;2023-03-01T15:51:04;8.20;64.90
23801;DHT22;12081;48.614;10.226;2023-03-01T15:53:52;8.20;65.30
23801;DHT22;12081;48.614;10.226;2023-03-01T15:56:36;8.10;66.10
23801;DHT22;12081;48.614;10.226;2023-03-01T15:59:20;7.90;65.00
23801;DHT22;12081;48.614;10.226;2023-03-01T16:02:12;7.80;64.50
23801;DHT22;12081;48.614;10.226;2023-03-01T16:04:56;7.60;64.70
23801;DHT22;12081;48.614;10.226;2023-03-01T16:07:40;7.40;64.80
23801;DHT22;12081;48.614;10.226;2023-03-01T16:10:24;7.30;65.30
23801;DHT22;12081;48.614;10.226;2023-03-01T16:13:10;7.10;66.20
23801;DHT22;12081;48.614;10.226;2023-03-01T16:15:54;7.00;66.80
23801;DHT22;12081;48.614;10.226;2023-03-01T16:18:38;6.80;67.00
23801;DHT22;12081;48.614;10.226;2023-03-01T16:21:24;6.80;67.80
23801;DHT22;12081;48.614;10.226;2023-03-01T16:24:13;6.70;68.20
23801;DHT22;12081;48.614;10.226;2023-03-01T16:26:57;7.20;69.20
23801;DHT22;12081;48.614;10.226;2023-03-01T16:29:41;6.60;69.30
23801;DHT22;12081;48.614;10.226;2023-03-01T16:32:25;6.60;69.80
23801;DHT22;12081;48.614;10.226;2023-03-01T16:35:12;6.50;70.90
23801;DHT22;12081;48.614;10.226;2023-03-01T16:37:56;6.30;71.50
23801;DHT22;12081;48.614;10.226;2023-03-01T16:40:47;6.20;72.40
23801;DHT22;12081;48.614;10.226;2023-03-01T16:43:31;6.10;73.60
23801;DHT22;12081;48.614;10.226;2023-03-01T16:46:25;6.00;74.50
23801;DHT22;12081;48.614;10.226;2023-03-01T16:49:09;5.90;75.60
23801;DHT22;12081;48.614;10.226;2023-03-01T16:51:54;5.80;77.00
23801;DHT22;12081;48.614;10.226;2023-03-01T16:54:38;5.60;78.40
23801;DHT22;12081;48.614;10.226;2023-03-01T16:57:23;5.50;80.60
23801;DHT22;12081;48.614;10.226;2023-03-01T17:00:09;5.30;83.50
23801;DHT22;12081;48.614;10.226;2023-03-01T17:02:54;5.20;87.00
23801;DHT22;12081;48.614;10.226;2023-03-01T17:05:40;5.00;89.90
23801;DHT22;12081;48.614;10.226;2023-03-01T17:08:24;4.80;91.50
23801;DHT22;12081;48.614;10.226;2023-03-01T17:11:19;4.70;93.30
23801;DHT22;12081;48.614;10.226;2023-03-01T17:14:03;4.40;95.30
23801;DHT22;12081;48.614;10.226;2023-03-01T17:16:47;4.20;97.60
23801;DHT22;12081;48.614;10.226;2023-03-01T17:19:31;4.20;99.50
23801;DHT22;12081;48.614;10.226;2023-03-01T17:22:16;4.00;99.90
23801;DHT22;12081;48.614;10.226;2023-03-01T17:25:00;4.00;99.90
23801;DHT22;12081;48.614;10.226;2023-03-01T17:27:45;4.00;99.90
23801;DHT22;12081;48.614;10.226;2023-03-01T17:30:29;4.00;99.90
23801;DHT22;12081;48.614;10.226;2023-03-01T17:33:14;4.00;99.90
23801;DHT22;12081;48.614;10.226;2023-03-01T17:35:59;3.90;99.90
23801;DHT22;12081;48.614;10.226;2023-03-01T17:38:43;3.80;99.90
23801;DHT22;12081;48.614;10.226;2023-03-01T17:41:29;3.80;99.90
23801;DHT22;12081;48.614;10.226;2023-03-01T17:44:13;3.80;99.90
23801;DHT22;12081;48.614;10.226;2023-03-01T17:46:57;3.80;99.90
23801;DHT22;12081;48.614;10.226;2023-03-01T17:49:41;3.80;99.90
23801;DHT22;12081;48.614;10.226;2023-03-01T17:52:26;3.80;99.90
23801;DHT22;12081;48.614;10.226;2023-03-01T17:55:10;4.00;99.90
23801;DHT22;12081;48.614;10.226;2023-03-01T17:57:54;4.00;99.90
23801;DHT22;12081;48.614;10.226;2023-03-01T18:00:39;4.10;99.90
23801;DHT22;12081;48.614;10.226;2023-03-01T18:03:23;4.20;99.90
23801;DHT22;12081;48.614;10.226;2023-03-01T18:06:16;4.20;99.90
23801;DHT22;12081;48.614;10.226;2023-03-01T18:09:00;4.20;99.90
23801;DHT22;12081;48.614;10.226;2023-03-01T18:11:44;4.20;99.90
23801;DHT22;12081;48.614;10.226;2023-03-01T18:14:28;4.20;99.90
23801;DHT22;12081;48.614;10.226;2023-03-01T18:17:16;4.20;99.90
23801;DHT22;12081;48.614;10.226;2023-03-01T18:20:00;4.10;99.90
23801;DHT22;12081;48.614;10.226;2023-03-01T18:22:45;4.10;99.90
23801;DHT22;12081;48.614;10.226;2023-03-01T18:25:29;4.10;99.90
23801;DHT22;12081;48.614;10.226;2023-03-01T18:28:13;4.10;99.90
23801;DHT22;12081;48.614;10.226;2023-03-01T18:33:31;4.10;99.90
23801;DHT22;12081;48.614;10.226;2023-03-01T18:36:24;4.00;99.90
23801;DHT22;12081;48.614;10.226;2023-03-01T18:39:08;4.00;99.90
23801;DHT22;12081;48.614;10.226;2023-03-01T18:41:52;3.90;99.90
23801;DHT22;12081;48.614;10.226;2023-03-01T18:44:36;3.90;99.90
23801;DHT22;12081;48.614;10.226;2023-03-01T18:47:21;3.80;99.90
23801;DHT22;12081;48.614;10.226;2023-03-01T18:50:05;3.80;99.90
23801;DHT22;12081;48.614;10.226;2023-03-01T18:52:50;3.70;99.90
23801;DHT22;12081;48.614;10.226;2023-03-01T18:55:38;3.60;99.90
23801;DHT22;12081;48.614;10.226;2023-03-01T18:58:22;3.50;99.90
23801;DHT22;12081;48.614;10.226;2023-03-01T19:01:13;3.50;99.90
23801;DHT22;12081;48.614;10.226;2023-03-01T19:03:57;3.40;99.90
23801;DHT22;12081;48.614;10.226;2023-03-01T19:06:41;3.40;99.90
23801;DHT22;12081;48.614;10.226;2023-03-01T19:09:25;3.30;99.90
23801;DHT22;12081;48.614;10.226;2023-03-01T19:12:09;3.30;99.90
23801;DHT22;12081;48.614;10.226;2023-03-01T19:14:53;3.30;99.90
23801;DHT22;12081;48.614;10.226;2023-03-01T19:17:37;3.30;99.90
23801;DHT22;12081;48.614;10.226;2023-03-01T19:20:21;3.20;99.90
23801;DHT22;12081;48.614;10.226;2023-03-01T19:23:05;3.30;99.90
23801;DHT22;12081;48.614;10.226;2023-03-01T19:25:49;3.20;99.90
23801;DHT22;12081;48.614;10.226;2023-03-01T19:28:34;3.10;99.90
23801;DHT22;12081;48.614;10.226;2023-03-01T19:31:22;3.20;99.90
23801;DHT22;12081;48.614;10.226;2023-03-01T19:34:08;3.10;99.90
23801;DHT22;12081;48.614;10.226;2023-03-01T19:36:52;3.10;99.90
23801;DHT22;12081;48.614;10.226;2023-03-01T19:39:36;3.00;99.90
23801;DHT22;12081;48.614;10.226;2023-03-01T19:42:20;2.90;99.90
23801;DHT22;12081;48.614;10.226;2023-03-01T19:45:09;2.80;99.90
23801;DHT22;12081;48.614;10.226;2023-03-01T19:47:53;2.80;99.90
23801;DHT22;12081;48.614;10.226;2023-03-01T19:50:37;2.80;99.90
23801;DHT22;12081;48.614;10.226;2023-03-01T19:53:21;2.70;99.90
23801;DHT22;12081;48.614;10.226;2023-03-01T19:56:06;2.60;99.90
23801;DHT22;12081;48.614;10.226;2023-03-01T19:58:51;2.50;99.90
23801;DHT22;12081;48.614;10.226;2023-03-01T20:01:43;2.40;99.90
23801;DHT22;12081;48.614;10.226;2023-03-01T20:04:27;2.30;99.90
23801;DHT22;12081;48.614;10.226;2023-03-01T20:07:11;2.20;99.90
23801;DHT22;12081;48.614;10.226;2023-03-01T20:09:55;2.20;99.90
23801;DHT22;12081;48.614;10.226;2023-03-01T20:12:40;2.20;99.90
23801;DHT22;12081;48.614;10.226;2023-03-01T20:15:24;2.20;99.90
23801;DHT22;12081;48.614;10.226;2023-03-01T20:18:10;2.20;99.90
23801;DHT22;12081;48.614;10.226;2023-03-01T20:20:54;2.10;99.90
23801;DHT22;12081;48.614;10.226;2023-03-01T20:23:39;2.10;99.90
23801;DHT22;12081;48.614;10.226;2023-03-01T20:26:24;2.10;99.90
23801;DHT22;12081;48.614;10.226;2023-03-01T20:29:09;2.00;99.90
23801;DHT22;12081;48.614;10.226;2023-03-01T20:31:54;2.00;99.90
23801;DHT22;12081;48.614;10.226;2023-03-01T20:34:40;2.00;99.90
23801;DHT22;12081;48.614;10.226;2023-03-01T20:37:24;2.00;99.90
23801;DHT22;12081;48.614;10.226;2023-03-01T20:40:09;1.90;99.90
23801;DHT22;12081;48.614;10.226;2023-03-01T20:42:54;1.90;99.90
23801;DHT22;12081;48.614;10.226;2023-03-01T20:45:38;1.90;99.90
23801;DHT22;12081;48.614;10.226;2023-03-01T20:48:23;1.90;99.90
23801;DHT22;12081;48.614;10.226;2023-03-01T20:51:08;1.90;99.90
23801;DHT22;12081;48.614;10.226;2023-03-01T20:53:53;1.90;99.90
23801;DHT22;12081;48.614;10.226;2023-03-01T20:56:37;1.90;99.90
23801;DHT22;12081;48.614;10.226;2023-03-01T20:59:21;1.90;99.90
23801;DHT22;12081;48.614;10.226;2023-03-01T21:02:06;1.90;99.90
23801;DHT22;12081;48.614;10.226;2023-03-01T21:04:50;1.90;99.90
23801;DHT22;12081;48.614;10.226;2023-03-01T21:07:34;1.90;99.90
23801;DHT22;12081;48.614;10.226;2023-03-01T21:10:18;2.00;99.90
23801;DHT22;12081;48.614;10.226;2023-03-01T21:13:03;2.00;99.90
23801;DHT22;12081;48.614;10.226;2023-03-01T21:15:54;1.90;99.90
23801;DHT22;12081;48.614;10.226;2023-03-01T21:18:39;1.90;99.90
23801;DHT22;12081;48.614;10.226;2023-03-01T21:21:24;2.00;99.90
23801;DHT22;12081;48.614;10.226;2023-03-01T21:24:08;2.00;99.90
23801;DHT22;12081;48.614;10.226;2023-03-01T21:26:53;2.00;99.90
23801;DHT22;12081;48.614;10.226;2023-03-01T21:29:42;1.90;99.90
23801;DHT22;12081;48.614;10.226;2023-03-01T21:32:26;1.90;99.90
23801;DHT22;12081;48.614;10.226;2023-03-01T21:35:11;1.90;99.90
23801;DHT22;12081;48.614;10.226;2023-03-01T21:37:55;1.90;99.90
23801;DHT22;12081;48.614;10.226;2023-03-01T21:40:39;1.90;99.90
23801;DHT22;12081;48.614;10.226;2023-03-01T21:43:23;1.80;99.90
23801;DHT22;12081;48.614;10.226;2023-03-01T21:46:11;1.80;99.90
23801;DHT22;12081;48.614;10.226;2023-03-01T21:48:57;1.70;99.90
23801;DHT22;12081;48.614;10.226;2023-03-01T21:51:41;1.70;99.90
23801;DHT22;12081;48.614;10.226;2023-03-01T21:54:25;1.80;99.90
23801;DHT22;12081;48.614;10.226;2023-03-01T21:57:10;1.70;99.90
23801;DHT22;12081;48.614;10.226;2023-03-01T21:59:54;1.70;99.90
23801;DHT22;12081;48.614;10.226;2023-03-01T22:02:39;1.70;99.90
23801;DHT22;12081;48.614;10.226;2023-03-01T22:05:24;1.60;99.90
23801;DHT22;12081;48.614;10.226;2023-03-01T22:08:08;1.60;99.90
23801;DHT22;12081;48.614;10.226;2023-03-01T22:10:52;1.60;99.90
23801;DHT22;12081;48.614;10.226;2023-03-01T22:13:37;1.50;99.90
23801;DHT22;12081;48.614;10.226;2023-03-01T22:16:26;1.50;99.90
23801;DHT22;12081;48.614;10.226;2023-03-01T22:19:13;1.40;99.90
23801;DHT22;12081;48.614;10.226;2023-03-01T22:21:57;1.40;99.90
23801;DHT22;12081;48.614;10.226;2023-03-01T22:24:41;1.40;99.90
23801;DHT22;12081;48.614;10.226;2023-03-01T22:27:25;1.40;99.90
23801;DHT22;12081;48.614;10.226;2023-03-01T22:30:11;1.40;99.90